KRSN

Details ICAO KRSN
Name RUSTON RGNL
Region United States
Timezone America/Chicago (UTC-6.0)
Plans Departing 2
Arriving 3
Stats Elevation 311 ft / 95 m (AMSL)
Location 32.514583° -92.588333°
Runways 1
Magnetic Variation 0.624° E
Sunrise 2017-12-12 13:04:19 UTC / 2017-12-12 07:04:19 Local
Sunset 2017-12-12 23:06:57 UTC / 2017-12-12 17:06:57 Local
Advertisement - Login to hide

Runways

ID Width Length Bearing (true) Bearing (mag) Surface Threshold Offset Overrun Length
18 100 ft / 30 m 5,018 ft / 1,529 m 180.00° 179.38° Asphalt 0 ft / 0 m 0 ft / 0 m
36 100 ft / 30 m 5,018 ft / 1,529 m 0.00° 359.38° Asphalt 200 ft / 61 m 0 ft / 0 m

Map

Weather


0- 5 10 15 20 25 30 35+ Temperature / ° C

Clouds and Precipitation
Forecast for 2017-12-13 00:00 UTC. Updated an hour ago

Ground ~20,000 ft ~40,000 ft Winds

METAR

KRSN 122035Z AUTO 33004KT 10SM CLR 14/M06 A3024 RMK AO2 T01411063

TAF

Not found

Frequencies

Recorded 119.52 MHz AWOS 3
Clearance 118.80 MHz CLNC DEL
Unicom 122.70 MHz UNICOM
Approach 126.90 MHz MONROE APP/DEP
Warning: Do not use this data for real-world aviation or navigation. No guarantee of current accuracy is given.